Time;durP1;ratioP1;P1;durP2;ratioP2;P2;SDS_P1;SDS_P2;PMS_P1;PMS_P2;Temp;Humidity;BMP_temperature;BMP_pressure;BME280_temperature;BME280_humidity;BME280_pressure;Samples;Min_cycle;Max_cycle;Signal;HPM_P1;HPM_P2
2022/09/18 00:01:11;;;;;;;0.60;0.60;;;;;;;12.91;86.86;97551.55;1687514;85;21029;-81
2022/09/18 00:03:39;;;;;;;1.55;0.55;;;;;;;12.92;86.68;97550.61;1687074;85;21537;-82
2022/09/18 00:06:12;;;;;;;0.50;0.50;;;;;;;12.85;86.86;97546.70;1687526;85;21057;-81
2022/09/18 00:08:39;;;;;;;0.65;0.45;;;;;;;12.78;86.89;97544.54;1687722;85;21025;-83
2022/09/18 00:11:08;;;;;;;0.60;0.60;;;;;;;12.76;87.03;97564.18;1687565;85;21025;-81
2022/09/18 00:13:37;;;;;;;0.60;0.60;;;;;;;12.70;86.63;97563.23;1687561;85;21002;-82
2022/09/18 00:16:06;;;;;;;0.40;0.40;;;;;;;12.64;86.00;97552.70;1687414;85;21066;-82
2022/09/18 00:18:32;;;;;;;0.47;0.47;;;;;;;12.62;86.14;97556.33;1687988;85;20982;-85
2022/09/18 00:21:12;;;;;;;0.57;0.57;;;;;;;12.56;85.99;97567.11;1688638;85;21037;-85
2022/09/18 00:23:40;;;;;;;0.42;0.42;;;;;;;12.53;86.18;97570.27;1688471;85;21015;-83
2022/09/18 00:26:08;;;;;;;0.50;0.50;;;;;;;12.49;86.20;97571.38;1683766;84;21036;-85
2022/09/18 00:28:35;;;;;;;0.45;0.45;;;;;;;12.43;85.99;97600.37;1636152;86;21130;-88
2022/09/18 00:31:11;;;;;;;0.30;0.30;;;;;;;12.41;86.40;97606.13;1650657;84;21017;-85
2022/09/18 00:33:38;;;;;;;0.40;0.40;;;;;;;12.39;86.12;97604.08;1649181;86;21030;-84
2022/09/18 00:36:11;;;;;;;0.50;0.50;;;;;;;12.36;86.21;97623.81;1646798;86;21073;-86
2022/09/18 00:38:38;;;;;;;1.65;0.40;;;;;;;12.30;86.29;97625.45;1632354;88;21476;-83
2022/09/18 00:41:09;;;;;;;0.40;0.40;;;;;;;12.30;86.48;97620.24;1646866;86;20998;-87
2022/09/18 00:43:37;;;;;;;0.60;0.60;;;;;;;12.19;86.69;97623.89;1632312;88;21014;-82
2022/09/18 00:46:20;;;;;;;0.95;0.65;;;;;;;12.16;86.36;97630.13;1646576;86;21073;-84
2022/09/18 00:49:07;;;;;;;0.50;0.50;;;;;;;12.24;86.20;97640.13;1616907;87;21017;-86
2022/09/18 00:51:36;;;;;;;0.85;0.50;;;;;;;12.14;85.81;97632.80;1647461;87;20997;-84
2022/09/18 00:54:11;;;;;;;0.40;0.40;;;;;;;12.11;86.33;97638.17;1648276;87;20963;-85
2022/09/18 00:56:38;;;;;;;0.60;0.60;;;;;;;12.10;86.10;97645.63;1650967;86;21041;-86
2022/09/18 00:59:08;;;;;;;0.50;0.50;;;;;;;12.09;85.93;97658.72;1650077;87;20981;-86
2022/09/18 01:01:34;;;;;;;3.12;0.50;;;;;;;12.01;85.69;97668.72;1648528;86;21013;-87
2022/09/18 01:04:02;;;;;;;0.40;0.40;;;;;;;11.96;85.36;97670.28;1648587;86;21482;-87
2022/09/18 01:06:49;;;;;;;1.70;0.45;;;;;;;11.97;85.38;97671.11;1649323;86;21502;-85
2022/09/18 01:09:24;;;;;;;0.70;0.70;;;;;;;11.89;85.17;97670.21;1648808;86;21016;-85
2022/09/18 01:12:11;;;;;;;0.90;0.62;;;;;;;11.88;84.97;97677.63;1648414;87;21116;-85
2022/09/18 01:14:43;;;;;;;0.40;0.40;;;;;;;11.86;84.45;97677.70;1648781;86;21032;-85
2022/09/18 01:17:30;;;;;;;0.50;0.50;;;;;;;11.88;83.86;97665.91;1625119;87;21065;-85
2022/09/18 01:20:17;;;;;;;0.40;0.40;;;;;;;11.79;83.21;97673.73;1648777;87;21009;-84
2022/09/18 01:23:20;;;;;;;0.37;0.37;;;;;;;11.80;83.58;97682.38;1648310;87;21041;-86
2022/09/18 01:26:07;;;;;;;0.78;0.50;;;;;;;11.73;83.84;97680.56;1646974;87;21506;-83
2022/09/18 01:28:45;;;;;;;2.62;0.40;;;;;;;11.78;83.35;97680.31;1621520;86;21558;-86
2022/09/18 01:31:23;;;;;;;0.60;0.60;;;;;;;11.72;83.18;97669.31;1643936;86;21003;-84
2022/09/18 01:34:04;;;;;;;1.75;0.45;;;;;;;11.70;82.95;97686.78;1651990;86;20969;-87
2022/09/18 01:36:35;;;;;;;0.30;0.30;;;;;;;11.56;83.92;97693.17;1667592;86;21042;-86
2022/09/18 01:39:17;;;;;;;0.50;0.50;;;;;;;11.55;84.18;97685.80;1663315;85;20948;-85
2022/09/18 01:41:50;;;;;;;1.02;0.62;;;;;;;11.51;84.38;97694.69;1667346;86;20994;-89
2022/09/18 01:44:18;;;;;;;0.47;0.47;;;;;;;11.49;84.52;97700.89;1674627;86;20955;-88
2022/09/18 01:46:47;;;;;;;0.53;0.40;;;;;;;11.41;85.38;97699.98;1649868;85;20956;-87
2022/09/18 01:49:20;;;;;;;0.40;0.40;;;;;;;11.40;85.14;97698.75;1662377;86;20945;-88
2022/09/18 01:51:55;;;;;;;0.33;0.33;;;;;;;11.37;85.51;97710.62;1641905;86;21493;-90
2022/09/18 01:54:32;;;;;;;0.50;0.50;;;;;;;11.31;85.86;97700.91;1675141;86;20986;-84
2022/09/18 01:57:22;;;;;;;0.60;0.60;;;;;;;11.27;86.12;97707.64;1651144;85;21011;-89
2022/09/18 02:00:03;;;;;;;0.50;0.50;;;;;;;11.20;86.24;97724.03;1635494;88;20956;-87
2022/09/18 02:02:43;;;;;;;0.50;0.50;;;;;;;11.14;86.84;97717.37;1670526;86;21054;-85
2022/09/18 02:05:21;;;;;;;0.40;0.40;;;;;;;11.14;86.81;97726.91;1674668;86;21053;-86
2022/09/18 02:08:04;;;;;;;0.60;0.60;;;;;;;11.11;86.93;97735.71;1674626;85;21505;-89
2022/09/18 02:10:34;;;;;;;0.50;0.50;;;;;;;11.09;87.40;97741.91;1659166;86;21053;-87
2022/09/18 02:13:05;;;;;;;0.65;0.60;;;;;;;10.97;89.15;97739.45;1654019;86;21000;-88
2022/09/18 02:15:37;;;;;;;0.50;0.50;;;;;;;11.00;87.63;97748.84;1615099;86;20995;-89
2022/09/18 02:18:13;;;;;;;0.50;0.50;;;;;;;10.92;88.21;97748.78;1659551;86;21066;-84
2022/09/18 02:20:42;;;;;;;0.40;0.40;;;;;;;10.91;88.49;97750.98;1658762;86;20990;-90
2022/09/18 02:23:10;;;;;;;0.50;0.50;;;;;;;10.89;88.14;97739.81;1634057;87;21036;-90
2022/09/18 02:25:59;;;;;;;0.53;0.53;;;;;;;10.85;88.12;97753.04;1642526;86;21502;-89
2022/09/18 02:28:29;;;;;;;1.40;0.57;;;;;;;10.87;87.83;97758.54;1673505;85;21041;-85
2022/09/18 02:30:57;;;;;;;0.60;0.60;;;;;;;10.86;87.79;97759.47;1662951;85;20937;-86
2022/09/18 02:33:34;;;;;;;0.53;0.53;;;;;;;10.86;87.98;97762.51;1666259;85;20985;-88
2022/09/18 02:36:45;;;;;;;0.45;0.45;;;;;;;10.83;87.71;97763.50;1662511;86;20988;-89
2022/09/18 02:39:41;;;;;;;0.30;0.30;;;;;;;10.91;87.18;97779.58;1673941;86;21010;-86
2022/09/18 02:42:29;;;;;;;0.30;0.30;;;;;;;10.87;86.83;97776.74;1668029;86;20974;-89
2022/09/18 02:45:34;;;;;;;1.00;0.60;;;;;;;10.87;86.63;97784.54;1660361;85;21034;-88
2022/09/18 02:48:26;;;;;;;0.85;0.62;;;;;;;10.86;86.42;97778.97;1658069;86;20970;-88
2022/09/18 02:51:30;;;;;;;0.68;0.68;;;;;;;10.84;86.19;97773.44;1660947;85;20985;-89
2022/09/18 02:54:06;;;;;;;1.82;0.70;;;;;;;10.88;86.20;97773.67;1672460;85;20970;-88
2022/09/18 02:57:00;;;;;;;0.40;0.40;;;;;;;10.90;86.22;97781.81;1651089;85;21084;-89
2022/09/18 02:59:44;;;;;;;1.82;0.95;;;;;;;10.91;86.05;97773.08;1661028;85;21501;-89
2022/09/18 03:02:13;;;;;;;0.40;0.40;;;;;;;10.88;85.47;97771.94;1627676;87;21532;-85
2022/09/18 03:04:40;;;;;;;0.53;0.53;;;;;;;10.97;85.62;97772.42;1637893;87;21097;-86
2022/09/18 03:07:08;;;;;;;1.75;0.60;;;;;;;10.96;85.15;97767.65;1673207;86;21006;-85
2022/09/18 03:09:40;;;;;;;0.50;0.50;;;;;;;10.93;84.79;97776.45;1660817;85;21004;-86
2022/09/18 03:12:07;;;;;;;1.85;0.60;;;;;;;10.92;84.82;97778.68;1668581;85;20985;-83
2022/09/18 03:14:36;;;;;;;0.55;0.55;;;;;;;10.91;84.52;97785.25;1675354;86;21058;-85
2022/09/18 03:17:03;;;;;;;3.12;0.75;;;;;;;10.91;84.54;97782.64;1672191;85;20986;-86
2022/09/18 03:19:31;;;;;;;1.95;0.60;;;;;;;10.83;84.34;97788.20;1662832;85;21461;-88
2022/09/18 03:21:59;;;;;;;0.50;0.50;;;;;;;10.84;84.30;97800.30;1649816;86;21459;-88
2022/09/18 03:24:28;;;;;;;0.40;0.40;;;;;;;10.81;84.43;97797.00;1676633;85;21026;-86
2022/09/18 03:26:55;;;;;;;0.40;0.40;;;;;;;10.84;84.36;97801.60;1661426;85;21496;-87
2022/09/18 03:29:23;;;;;;;1.75;0.75;;;;;;;10.77;84.13;97798.06;1655825;87;21497;-87
2022/09/18 03:31:51;;;;;;;0.57;0.57;;;;;;;10.74;84.19;97816.78;1642019;85;21031;-87
2022/09/18 03:34:18;;;;;;;0.40;0.40;;;;;;;10.71;84.33;97816.08;1652531;87;20966;-86
2022/09/18 03:36:48;;;;;;;0.68;0.60;;;;;;;10.77;84.16;97833.98;1616730;88;21505;-86
2022/09/18 03:39:17;;;;;;;1.30;0.57;;;;;;;10.68;83.81;97833.09;1633705;87;21002;-88
2022/09/18 03:41:46;;;;;;;0.60;0.60;;;;;;;10.68;83.86;97841.77;1655850;85;20949;-88
2022/09/18 03:44:12;;;;;;;0.95;0.70;;;;;;;10.61;83.89;97849.44;1610836;88;21012;-89
2022/09/18 03:46:41;;;;;;;0.47;0.47;;;;;;;10.62;83.58;97859.37;1637233;88;21062;-87
2022/09/18 03:49:08;;;;;;;1.27;0.70;;;;;;;10.60;83.52;97859.89;1648313;85;21039;-86
2022/09/18 03:51:36;;;;;;;0.95;0.70;;;;;;;10.57;83.66;97858.28;1609993;88;21013;-88
2022/09/18 03:54:03;;;;;;;0.50;0.50;;;;;;;10.52;83.86;97866.30;1635498;88;21038;-90
2022/09/18 03:56:37;;;;;;;0.50;0.50;;;;;;;10.52;83.82;97870.20;1652488;85;21120;-90
2022/09/18 03:59:14;;;;;;;0.60;0.60;;;;;;;10.49;83.98;97867.72;1610241;89;21016;-87
2022/09/18 04:01:59;;;;;;;0.60;0.60;;;;;;;10.54;83.96;97880.06;1638513;88;21038;-88
2022/09/18 04:04:26;;;;;;;1.12;0.50;;;;;;;10.54;84.07;97888.30;1648731;87;20993;-89
2022/09/18 04:06:52;;;;;;;0.50;0.50;;;;;;;10.52;83.89;97881.89;1654158;86;21041;-87
2022/09/18 04:09:38;;;;;;;1.82;1.20;;;;;;;10.52;84.09;97883.19;1653983;87;21037;-87
2022/09/18 04:12:05;;;;;;;1.35;0.90;;;;;;;10.53;83.70;97891.36;1655250;87;20953;-87
2022/09/18 04:14:32;;;;;;;0.85;0.75;;;;;;;10.51;83.59;97899.67;1622638;87;20972;-85
2022/09/18 04:16:59;;;;;;;1.75;0.78;;;;;;;10.50;83.64;97907.53;1640607;86;20985;-88
2022/09/18 04:19:25;;;;;;;1.22;0.72;;;;;;;10.51;83.17;97915.73;1637568;87;20988;-89
2022/09/18 04:21:52;;;;;;;1.47;0.70;;;;;;;10.46;83.60;97923.70;1627096;88;20988;-89
2022/09/18 04:24:20;;;;;;;1.27;1.17;;;;;;;10.47;83.52;97911.58;1651623;87;20993;-86
2022/09/18 04:26:48;;;;;;;0.98;0.88;;;;;;;10.43;83.45;97930.81;1656049;86;20958;-90
2022/09/18 04:29:14;;;;;;;1.10;0.90;;;;;;;10.41;83.86;97929.58;1655629;86;21028;-87
2022/09/18 04:31:41;;;;;;;1.42;0.90;;;;;;;10.41;84.08;97930.04;1614240;88;21008;-87
2022/09/18 04:34:10;;;;;;;1.55;1.10;;;;;;;10.34;84.57;97943.30;1639662;86;21054;-89
2022/09/18 04:36:36;;;;;;;0.62;0.62;;;;;;;10.36;84.57;97949.70;1667317;86;20982;-88
2022/09/18 04:39:03;;;;;;;2.05;1.10;;;;;;;10.34;84.48;97954.11;1672951;86;21561;-87
2022/09/18 04:41:30;;;;;;;1.87;1.10;;;;;;;10.29;84.85;97955.59;1658124;86;20979;-87
2022/09/18 04:43:57;;;;;;;3.40;2.00;;;;;;;10.31;84.75;97965.95;1673881;85;20983;-88
2022/09/18 04:46:23;;;;;;;2.08;1.32;;;;;;;10.34;84.37;97966.67;1670216;86;21039;-89
2022/09/18 04:48:52;;;;;;;0.68;0.68;;;;;;;10.38;83.73;97973.02;1674318;86;20991;-87
2022/09/18 04:51:20;;;;;;;2.05;0.85;;;;;;;10.29;84.36;97980.27;1664001;86;21014;-88
2022/09/18 04:53:48;;;;;;;1.00;0.82;;;;;;;10.28;84.36;97982.45;1673654;86;21435;-86
2022/09/18 04:56:15;;;;;;;0.65;0.65;;;;;;;10.31;84.14;97983.67;1668192;86;21053;-86
2022/09/18 04:58:43;;;;;;;1.02;0.70;;;;;;;10.30;84.24;97978.07;1662558;85;21034;-87
2022/09/18 05:01:11;;;;;;;0.70;0.70;;;;;;;10.31;84.45;97981.54;1686702;85;21022;-89
2022/09/18 05:03:37;;;;;;;0.60;0.60;;;;;;;10.32;84.19;97981.91;1688431;85;21001;-86
2022/09/18 05:06:05;;;;;;;0.60;0.60;;;;;;;10.31;84.10;97975.88;1685457;85;21058;-86
2022/09/18 05:08:33;;;;;;;0.55;0.55;;;;;;;10.34;83.94;97987.45;1686925;85;21017;-85
2022/09/18 05:11:03;;;;;;;0.82;0.60;;;;;;;10.37;83.87;97996.87;1688253;85;21029;-86
2022/09/18 05:13:31;;;;;;;0.78;0.75;;;;;;;10.42;83.77;98009.19;1665220;85;20966;-86
2022/09/18 05:15:59;;;;;;;0.60;0.60;;;;;;;10.43;83.63;98008.77;1687282;85;20998;-86
2022/09/18 05:18:28;;;;;;;1.07;0.70;;;;;;;10.45;83.57;98010.84;1662925;85;20982;-87
2022/09/18 05:21:05;;;;;;;0.70;0.70;;;;;;;10.52;83.03;98016.16;1671292;86;21006;-84
2022/09/18 05:23:33;;;;;;;1.75;0.62;;;;;;;10.45;83.64;98018.17;1673171;86;20959;-85
2022/09/18 05:26:01;;;;;;;0.40;0.40;;;;;;;10.47;83.39;98024.15;1676621;85;21039;-85
2022/09/18 05:28:28;;;;;;;0.60;0.60;;;;;;;10.50;82.95;98026.64;1663611;85;20947;-86
2022/09/18 05:31:00;;;;;;;0.70;0.70;;;;;;;10.52;82.76;98027.41;1652679;86;20976;-83
2022/09/18 05:33:28;;;;;;;0.65;0.65;;;;;;;10.56;82.74;98033.30;1669087;86;20998;-83
2022/09/18 05:35:57;;;;;;;1.27;0.80;;;;;;;10.63;82.84;98038.64;1646666;85;20955;-86
2022/09/18 05:38:25;;;;;;;1.17;0.68;;;;;;;10.70;82.62;98041.39;1671748;85;21042;-87
2022/09/18 05:40:52;;;;;;;0.90;0.70;;;;;;;10.71;82.42;98045.66;1674301;86;21765;-87
2022/09/18 05:43:19;;;;;;;2.75;0.90;;;;;;;10.71;82.15;98066.92;1655986;85;21020;-87
2022/09/18 05:45:48;;;;;;;0.70;0.70;;;;;;;10.75;82.06;98062.81;1636533;87;21015;-89
2022/09/18 05:48:16;;;;;;;1.05;0.82;;;;;;;10.76;81.63;98070.16;1659340;85;20992;-87
2022/09/18 05:50:44;;;;;;;1.35;0.70;;;;;;;10.78;81.62;98077.89;1628821;88;20976;-87
2022/09/18 05:53:15;;;;;;;0.50;0.50;;;;;;;10.79;81.49;98080.44;1643152;87;21049;-84
2022/09/18 05:56:02;;;;;;;0.98;0.53;;;;;;;10.84;81.28;98077.20;1657652;85;21084;-88
2022/09/18 05:58:30;;;;;;;2.80;0.72;;;;;;;10.88;81.57;98079.19;1674124;86;20978;-84
2022/09/18 06:01:00;;;;;;;1.65;0.70;;;;;;;10.99;81.64;98088.69;1647590;86;21014;-89
2022/09/18 06:03:27;;;;;;;0.82;0.62;;;;;;;10.99;81.52;98094.36;1676006;85;20971;-88
2022/09/18 06:05:56;;;;;;;1.02;0.70;;;;;;;11.03;81.09;98094.61;1673401;86;21022;-87
2022/09/18 06:08:23;;;;;;;2.12;0.80;;;;;;;10.99;80.83;98089.99;1671261;85;20998;-85
2022/09/18 06:10:50;;;;;;;1.27;0.85;;;;;;;11.01;80.78;98102.47;1657505;86;20988;-84
2022/09/18 06:13:18;;;;;;;1.17;0.72;;;;;;;11.00;80.52;98093.42;1647388;87;21031;-84
2022/09/18 06:15:50;;;;;;;1.77;0.80;;;;;;;10.99;80.16;98093.05;1623568;87;20992;-88
2022/09/18 06:18:19;;;;;;;0.88;0.65;;;;;;;11.10;79.24;98090.81;1642957;87;21050;-88
2022/09/18 06:20:58;;;;;;;0.62;0.60;;;;;;;11.02;79.18;98098.11;1630873;86;20949;-89
2022/09/18 06:23:27;;;;;;;3.72;0.75;;;;;;;11.09;79.29;98105.59;1629707;88;21012;-88
2022/09/18 06:25:58;;;;;;;0.55;0.55;;;;;;;11.13;78.98;98119.31;1661285;86;20953;-88
2022/09/18 06:28:25;;;;;;;5.67;0.90;;;;;;;11.19;78.90;98121.65;1659532;86;21074;-87
2022/09/18 06:30:53;;;;;;;2.85;0.70;;;;;;;11.15;78.15;98120.09;1662682;86;20996;-89
2022/09/18 06:33:20;;;;;;;1.35;0.75;;;;;;;11.28;78.53;98114.75;1613793;88;21441;-88
2022/09/18 06:35:48;;;;;;;1.05;0.82;;;;;;;11.23;78.45;98131.47;1636996;86;20955;-88
2022/09/18 06:38:16;;;;;;;1.22;1.00;;;;;;;11.15;77.93;98136.53;1651000;85;21047;-85
2022/09/18 06:40:53;;;;;;;1.02;0.80;;;;;;;11.17;78.04;98140.38;1675294;86;21045;-83
2022/09/18 06:43:25;;;;;;;1.00;0.80;;;;;;;11.18;78.29;98146.42;1662742;85;20988;-86
2022/09/18 06:46:11;;;;;;;2.00;0.80;;;;;;;11.24;78.07;98148.33;1672917;86;21045;-85
2022/09/18 06:48:39;;;;;;;2.33;0.80;;;;;;;11.19;78.33;98157.23;1676981;85;21003;-88
2022/09/18 06:51:06;;;;;;;1.45;0.80;;;;;;;11.09;78.04;98150.27;1659495;86;20939;-86
2022/09/18 06:53:36;;;;;;;1.32;1.00;;;;;;;11.26;78.54;98165.14;1652643;86;21042;-84
2022/09/18 06:56:03;;;;;;;3.85;1.10;;;;;;;11.22;78.23;98163.16;1661217;85;21035;-88
2022/09/18 06:58:31;;;;;;;1.37;1.00;;;;;;;11.27;77.87;98174.20;1669022;86;21567;-89
2022/09/18 07:00:59;;;;;;;3.67;1.00;;;;;;;11.32;77.80;98176.16;1676580;86;20997;-84
2022/09/18 07:03:28;;;;;;;1.55;1.07;;;;;;;11.34;77.70;98178.70;1647275;86;21472;-86
2022/09/18 07:06:11;;;;;;;1.20;0.85;;;;;;;11.35;77.91;98190.33;1670746;86;21074;-83
2022/09/18 07:08:40;;;;;;;1.00;0.90;;;;;;;11.37;78.06;98186.83;1672255;85;20999;-85
2022/09/18 07:11:10;;;;;;;0.60;0.60;;;;;;;11.39;77.87;98189.74;1675474;86;20970;-85
2022/09/18 07:13:37;;;;;;;1.35;0.98;;;;;;;11.43;77.74;98195.67;1645571;85;20998;-89
2022/09/18 07:16:05;;;;;;;1.00;0.90;;;;;;;11.48;77.97;98191.09;1659439;85;21525;-87
2022/09/18 07:18:32;;;;;;;2.10;0.90;;;;;;;11.53;77.69;98195.19;1617153;87;21028;-83
2022/09/18 07:20:59;;;;;;;4.37;1.10;;;;;;;11.60;77.58;98197.09;1636531;87;20994;-85
2022/09/18 07:23:32;;;;;;;2.05;1.05;;;;;;;11.67;77.61;98201.56;1654567;85;20977;-81
2022/09/18 07:25:59;;;;;;;3.37;1.00;;;;;;;11.64;77.18;98201.25;1635036;87;21615;-81
2022/09/18 07:28:26;;;;;;;4.42;0.70;;;;;;;11.66;77.12;98201.19;1664362;85;21029;-86
2022/09/18 07:30:55;;;;;;;1.12;0.80;;;;;;;11.67;76.90;98205.47;1648239;86;21048;-85
2022/09/18 07:33:22;;;;;;;0.88;0.80;;;;;;;11.68;76.63;98221.03;1651484;85;20989;-86
2022/09/18 07:35:49;;;;;;;1.45;0.90;;;;;;;11.77;77.10;98220.23;1648299;86;21008;-84
2022/09/18 07:38:16;;;;;;;1.27;0.80;;;;;;;11.74;77.01;98222.06;1662136;86;20996;-84
2022/09/18 07:40:48;;;;;;;0.88;0.82;;;;;;;11.84;77.33;98232.09;1654828;85;20966;-84
2022/09/18 07:43:16;;;;;;;2.08;0.90;;;;;;;11.94;77.31;98232.94;1660803;86;21052;-81
2022/09/18 07:45:45;;;;;;;1.57;1.00;;;;;;;11.95;77.60;98233.77;1640003;85;21027;-82
2022/09/18 07:48:12;;;;;;;3.95;1.15;;;;;;;11.99;77.64;98240.53;1662053;86;20981;-84
2022/09/18 07:50:41;;;;;;;2.50;0.93;;;;;;;12.02;77.98;98235.67;1651415;86;21504;-82
2022/09/18 07:53:09;;;;;;;0.80;0.80;;;;;;;12.03;78.49;98249.91;1654932;86;21493;-81
2022/09/18 07:55:37;;;;;;;1.42;1.17;;;;;;;12.00;78.47;98245.31;1603552;88;21480;-82
2022/09/18 07:58:06;;;;;;;1.15;0.90;;;;;;;11.92;79.00;98245.18;1658483;86;21539;-82
2022/09/18 08:00:51;;;;;;;0.70;0.70;;;;;;;11.94;79.68;98249.03;1655051;86;20980;-80
2022/09/18 08:03:19;;;;;;;0.95;0.85;;;;;;;11.97;80.05;98248.87;1642221;87;20961;-82
2022/09/18 08:05:48;;;;;;;1.55;1.00;;;;;;;11.98;80.48;98245.38;1648631;86;21489;-83
2022/09/18 08:08:14;;;;;;;3.15;1.10;;;;;;;12.03;80.45;98241.25;1660787;86;20980;-83
2022/09/18 08:11:00;;;;;;;1.85;1.20;;;;;;;12.17;79.97;98247.98;1647135;85;20988;-84
2022/09/18 08:13:49;;;;;;;5.20;1.30;;;;;;;12.14;79.92;98242.92;1607339;89;21055;-81
2022/09/18 08:16:33;;;;;;;0.93;0.88;;;;;;;12.29;79.58;98248.73;1643474;85;21001;-83
2022/09/18 08:19:18;;;;;;;5.10;1.40;;;;;;;12.47;79.07;98249.67;1662709;86;21056;-81
2022/09/18 08:21:46;;;;;;;1.65;1.20;;;;;;;12.39;79.03;98271.77;1650633;87;20988;-84
2022/09/18 08:24:16;;;;;;;1.92;1.20;;;;;;;12.37;79.47;98258.80;1628848;88;20984;-82
2022/09/18 08:26:44;;;;;;;2.65;1.25;;;;;;;12.37;80.46;98267.09;1657603;85;20965;-81
2022/09/18 08:29:17;;;;;;;3.72;1.40;;;;;;;12.34;80.69;98265.02;1644492;87;20996;-84
2022/09/18 08:31:43;;;;;;;4.62;1.60;;;;;;;12.36;81.29;98270.16;1651010;86;21009;-81
2022/09/18 08:34:10;;;;;;;2.45;1.70;;;;;;;12.41;80.89;98270.78;1652774;85;21045;-83
2022/09/18 08:36:37;;;;;;;1.70;1.30;;;;;;;12.40;80.64;98274.32;1605140;88;21003;-82
2022/09/18 08:39:06;;;;;;;3.37;1.50;;;;;;;12.42;79.66;98280.31;1622066;88;21520;-85
2022/09/18 08:41:54;;;;;;;2.83;1.20;;;;;;;12.49;79.55;98276.52;1637405;87;21038;-81
2022/09/18 08:44:34;;;;;;;5.53;1.70;;;;;;;12.38;79.66;98286.58;1636181;85;21101;-81
2022/09/18 08:47:09;;;;;;;4.85;1.20;;;;;;;12.43;80.49;98286.36;1655001;87;21025;-81
2022/09/18 08:49:47;;;;;;;4.92;1.35;;;;;;;12.49;80.19;98288.25;1608452;87;20969;-80
2022/09/18 08:52:22;;;;;;;3.10;1.67;;;;;;;12.41;79.85;98283.81;1608696;88;21008;-84
2022/09/18 08:55:18;;;;;;;2.80;1.40;;;;;;;12.47;79.34;98290.52;1635302;88;21541;-82
2022/09/18 08:57:54;;;;;;;2.37;1.30;;;;;;;12.51;78.64;98274.69;1649912;85;21041;-84
2022/09/18 09:00:45;;;;;;;3.75;1.25;;;;;;;12.60;78.16;98298.17;1643393;87;21024;-83
2022/09/18 09:03:42;;;;;;;2.37;1.22;;;;;;;12.52;78.27;98285.48;1652721;87;21017;-84
2022/09/18 09:06:51;;;;;;;3.60;1.10;;;;;;;12.49;78.59;98291.29;1647345;85;20993;-83
2022/09/18 09:09:34;;;;;;;1.87;1.30;;;;;;;12.65;78.63;98291.43;1644901;87;21001;-84
2022/09/18 09:12:26;;;;;;;2.08;1.22;;;;;;;12.78;77.91;98297.78;1644206;86;20989;-81
2022/09/18 09:15:29;;;;;;;3.72;1.85;;;;;;;12.82;76.93;98301.93;1645773;85;21069;-84
2022/09/18 09:18:24;;;;;;;2.72;1.30;;;;;;;12.85;77.13;98299.19;1649244;87;20961;-83
2022/09/18 09:20:55;;;;;;;2.20;1.40;;;;;;;12.90;75.89;98312.84;1646692;87;20946;-83
2022/09/18 09:23:53;;;;;;;2.25;1.30;;;;;;;12.88;75.88;98311.23;1651038;86;21020;-80
2022/09/18 09:26:23;;;;;;;5.62;1.20;;;;;;;12.92;76.33;98334.95;1643631;87;20993;-83
2022/09/18 09:28:58;;;;;;;3.08;1.45;;;;;;;12.99;75.91;98328.98;1649050;85;21030;-83
2022/09/18 09:31:40;;;;;;;2.60;1.30;;;;;;;13.09;75.28;98339.37;1638139;87;21081;-78
2022/09/18 09:34:33;;;;;;;3.17;1.32;;;;;;;13.17;74.72;98341.18;1627726;87;21000;-84
2022/09/18 09:37:05;;;;;;;3.90;1.62;;;;;;;13.32;74.02;98352.20;1590193;88;21579;-82
2022/09/18 09:39:56;;;;;;;3.25;1.30;;;;;;;13.33;73.44;98354.37;1628374;88;21515;-82
2022/09/18 09:42:34;;;;;;;2.30;1.47;;;;;;;13.22;73.12;98374.41;1643319;87;21041;-82
2022/09/18 09:45:28;;;;;;;4.10;1.30;;;;;;;13.18;72.81;98378.55;1641339;86;21013;-82
2022/09/18 09:48:24;;;;;;;2.10;1.30;;;;;;;13.22;73.02;98367.89;1642128;87;20997;-82
2022/09/18 09:51:02;;;;;;;7.08;1.80;;;;;;;13.39;73.36;98379.31;1605761;87;20992;-80
2022/09/18 09:53:30;;;;;;;4.15;1.50;;;;;;;13.35;72.79;98376.03;1632093;87;20998;-80
2022/09/18 09:56:15;;;;;;;2.08;1.20;;;;;;;13.38;72.50;98388.92;1639063;86;21069;-80
2022/09/18 09:58:59;;;;;;;4.08;1.55;;;;;;;13.39;73.14;98393.23;1635778;87;20993;-85
2022/09/18 10:01:40;;;;;;;4.42;1.20;;;;;;;13.26;72.26;98389.48;1638959;86;21001;-83
2022/09/18 10:04:13;;;;;;;4.60;1.62;;;;;;;13.21;71.57;98402.75;1645903;86;21049;-85
2022/09/18 10:06:49;;;;;;;5.33;1.30;;;;;;;13.22;72.33;98404.43;1596727;89;21000;-82
2022/09/18 10:09:36;;;;;;;4.35;1.32;;;;;;;13.23;64.98;98423.11;1577745;90;21028;-84
2022/09/18 10:12:52;;;;;;;7.05;1.10;;;;;;;13.32;66.75;98417.47;1616709;88;21528;-83
2022/09/18 10:15:27;;;;;;;3.67;1.30;;;;;;;13.51;66.89;98432.28;1601576;87;20986;-82
2022/09/18 10:17:58;;;;;;;2.35;1.20;;;;;;;13.62;63.13;98439.59;1647969;87;20993;-82
2022/09/18 10:20:29;;;;;;;5.40;1.65;;;;;;;13.58;61.66;98455.02;1646582;86;20974;-82
2022/09/18 10:23:07;;;;;;;2.55;1.30;;;;;;;13.69;63.39;98470.57;1643809;86;21725;-81
2022/09/18 10:25:51;;;;;;;4.80;1.20;;;;;;;13.75;62.35;98486.86;1636119;84;20915;-87
2022/09/18 10:28:17;;;;;;;;;;;;;;;13.65;61.71;98483.39;1601358;88;20989;-87
2022/09/18 10:31:04;;;;;;;2.25;1.22;;;;;;;13.37;60.56;98496.03;1629237;87;20491;-89
2022/09/18 10:33:40;;;;;;;5.55;1.35;;;;;;;13.33;61.19;98506.63;1648170;86;20977;-87
2022/09/18 10:36:26;;;;;;;3.05;1.30;;;;;;;13.17;62.32;98505.61;1625620;87;21043;-83
2022/09/18 10:38:54;;;;;;;2.58;1.20;;;;;;;12.88;61.60;98511.64;1639058;86;21010;-88
2022/09/18 10:41:38;;;;;;;4.80;1.40;;;;;;;12.87;63.08;98521.70;1661288;85;21077;-87
2022/09/18 10:44:28;;;;;;;4.30;1.32;;;;;;;12.90;61.81;98531.98;1667034;85;20974;-81
2022/09/18 10:47:17;;;;;;;4.97;1.55;;;;;;;12.87;61.25;98515.18;1655868;86;21441;-81
2022/09/18 10:50:13;;;;;;;7.40;1.55;;;;;;;12.85;61.59;98515.70;1666194;86;21527;-82
2022/09/18 10:52:45;;;;;;;5.90;1.30;;;;;;;12.81;61.45;98523.28;1646152;86;21010;-83
2022/09/18 10:55:27;;;;;;;3.35;1.30;;;;;;;12.94;62.03;98536.16;1658897;85;21042;-83
2022/09/18 10:58:03;;;;;;;6.45;1.60;;;;;;;13.09;62.20;98528.13;1673633;84;21105;-82
2022/09/18 11:00:37;;;;;;;2.90;1.02;;;;;;;13.17;63.00;98518.66;1671537;86;21022;-87
2022/09/18 11:03:23;;;;;;;4.37;1.37;;;;;;;13.28;61.63;98515.55;1672612;86;21006;-87
2022/09/18 11:05:59;;;;;;;2.40;1.20;;;;;;;13.49;61.49;98526.36;1668365;86;21026;-83
2022/09/18 11:08:36;;;;;;;5.53;1.22;;;;;;;13.80;61.05;98513.63;1654282;86;21002;-81
2022/09/18 11:11:07;;;;;;;3.50;1.30;;;;;;;14.02;61.06;98516.89;1669510;85;21002;-88
2022/09/18 11:13:49;;;;;;;5.30;1.30;;;;;;;14.11;60.82;98508.61;1674278;85;21058;-83
2022/09/18 11:16:25;;;;;;;5.08;1.37;;;;;;;14.30;60.66;98518.16;1660807;86;21007;-83
2022/09/18 11:19:15;;;;;;;2.35;1.20;;;;;;;14.29;61.31;98508.63;1657931;86;21006;-81
2022/09/18 11:21:50;;;;;;;5.67;1.10;;;;;;;14.28;58.98;98510.84;1629116;87;20999;-82
2022/09/18 11:24:26;;;;;;;4.00;1.17;;;;;;;14.39;59.52;98507.25;1658534;86;21838;-81
2022/09/18 11:27:00;;;;;;;6.30;1.10;;;;;;;14.36;55.92;98504.77;1663519;85;20994;-79
2022/09/18 11:29:38;;;;;;;2.83;1.20;;;;;;;14.40;58.44;98515.93;1663810;86;21002;-80
2022/09/18 11:32:25;;;;;;;2.85;1.30;;;;;;;14.41;58.75;98506.71;1655946;85;21500;-82
2022/09/18 11:34:57;;;;;;;1.55;0.90;;;;;;;14.55;59.81;98504.70;1611904;88;20992;-81
2022/09/18 11:37:36;;;;;;;1.17;0.98;;;;;;;14.60;59.24;98510.56;1674703;85;20996;-80
2022/09/18 11:40:17;;;;;;;4.12;1.10;;;;;;;14.62;59.68;98506.57;1675731;85;21006;-82
2022/09/18 11:42:49;;;;;;;1.70;1.20;;;;;;;14.73;59.24;98518.66;1655425;86;20978;-81
2022/09/18 11:45:31;;;;;;;4.37;1.30;;;;;;;14.94;57.36;98531.11;1666201;86;21017;-80
2022/09/18 11:48:24;;;;;;;3.20;1.62;;;;;;;14.99;56.01;98526.93;1650340;85;21449;-81
2022/09/18 11:50:55;;;;;;;3.25;1.17;;;;;;;15.29;55.60;98529.23;1589219;88;21079;-82
2022/09/18 11:53:29;;;;;;;3.17;1.30;;;;;;;15.48;55.76;98521.23;1631075;86;21018;-80
2022/09/18 11:56:22;;;;;;;5.75;1.25;;;;;;;15.58;54.69;98536.00;1673845;84;21104;-86
2022/09/18 11:59:20;;;;;;;4.40;0.98;;;;;;;15.59;55.54;98532.43;1656008;86;21033;-85
2022/09/18 12:01:52;;;;;;;3.27;1.10;;;;;;;15.58;53.35;98521.59;1659878;85;20986;-83
2022/09/18 12:04:58;;;;;;;1.98;1.05;;;;;;;15.96;55.15;98517.80;1668012;86;20978;-83
2022/09/18 12:07:47;;;;;;;2.75;1.07;;;;;;;16.29;54.93;98521.13;1633339;86;20987;-85
2022/09/18 12:10:57;;;;;;;1.70;1.10;;;;;;;16.61;53.71;98508.36;1671885;86;21010;-84